Time;durP1;ratioP1;P1;durP2;ratioP2;P2;SDS_P1;SDS_P2;PMS_P1;PMS_P2;Temp;Humidity;BMP_temperature;BMP_pressure;BME280_temperature;BME280_humidity;BME280_pressure;Samples;Min_cycle;Max_cycle;Signal;HPM_P1;HPM_P2
2023/04/26 00:00:34;;;;;;;11.00;4.30;;;;;;;15.98;63.51;100594.34;110546;1274;22124;-53
2023/04/26 00:03:02;;;;;;;15.40;5.50;;;;;;;16.00;63.47;100589.71;110473;1274;22393;-52
2023/04/26 00:05:29;;;;;;;18.10;5.80;;;;;;;16.00;63.54;100593.89;110569;1269;22319;-52
2023/04/26 00:07:57;;;;;;;10.70;4.30;;;;;;;16.01;63.70;100598.05;110556;1274;22154;-52
2023/04/26 00:10:24;;;;;;;14.60;5.10;;;;;;;16.02;63.63;100598.69;110525;1269;22331;-53
2023/04/26 00:12:51;;;;;;;18.40;5.00;;;;;;;16.03;63.76;100596.21;110624;1268;22149;-52
2023/04/26 00:15:18;;;;;;;21.50;6.10;;;;;;;16.10;63.53;100594.98;110531;1268;22405;-52
2023/04/26 00:17:46;;;;;;;13.50;4.30;;;;;;;16.11;63.52;100594.09;110524;1269;22368;-53
2023/04/26 00:20:13;;;;;;;8.30;4.90;;;;;;;16.06;63.71;100588.73;110287;1271;22138;-53
2023/04/26 00:22:40;;;;;;;12.50;5.00;;;;;;;16.05;63.65;100588.10;110535;1266;22342;-52
2023/04/26 00:25:07;;;;;;;15.40;4.60;;;;;;;16.04;63.66;100590.91;110528;1274;22454;-52
2023/04/26 00:27:34;;;;;;;12.80;5.10;;;;;;;16.04;63.74;100594.05;110524;1274;22989;-53
2023/04/26 00:30:02;;;;;;;16.10;5.10;;;;;;;16.01;63.78;100596.48;110410;1268;22186;-54
2023/04/26 00:32:29;;;;;;;12.00;4.40;;;;;;;15.98;63.85;100591.73;110308;1274;23164;-55
2023/04/26 00:34:56;;;;;;;17.80;5.40;;;;;;;15.97;63.75;100592.13;110543;1269;22141;-55
2023/04/26 00:37:24;;;;;;;11.20;4.70;;;;;;;16.00;63.71;100591.81;110546;1270;22115;-52
2023/04/26 00:39:51;;;;;;;13.30;3.80;;;;;;;16.01;63.79;100588.45;110570;1268;22196;-52
2023/04/26 00:42:18;;;;;;;11.10;5.10;;;;;;;16.00;63.71;100591.10;110418;1274;22422;-52
2023/04/26 00:44:45;;;;;;;14.70;4.80;;;;;;;15.99;63.69;100591.51;110534;1274;22443;-52
2023/04/26 00:47:12;;;;;;;11.50;4.70;;;;;;;15.95;63.80;100589.76;110519;1269;22137;-52
2023/04/26 00:49:39;;;;;;;13.80;4.90;;;;;;;15.95;63.89;100586.10;110545;1268;22316;-52
2023/04/26 00:52:06;;;;;;;13.10;4.60;;;;;;;15.94;63.98;100591.39;110434;1266;22138;-52
2023/04/26 00:54:33;;;;;;;12.30;4.40;;;;;;;15.94;64.06;100588.79;110585;1267;22299;-52
2023/04/26 00:57:01;;;;;;;14.70;4.70;;;;;;;15.92;64.06;100590.62;110505;1269;22392;-53
2023/04/26 00:59:28;;;;;;;11.20;4.20;;;;;;;15.91;64.12;100590.29;110206;1274;22208;-53
2023/04/26 01:01:56;;;;;;;10.70;4.90;;;;;;;15.90;64.13;100586.30;110522;1267;22138;-53
2023/04/26 01:04:26;;;;;;;13.10;4.40;;;;;;;15.89;64.15;100586.56;110407;1274;22130;-53
2023/04/26 01:06:54;;;;;;;13.50;5.40;;;;;;;15.86;64.27;100582.50;110553;1275;22076;-53
2023/04/26 01:09:21;;;;;;;10.00;4.70;;;;;;;15.87;64.43;100585.96;110418;1271;22134;-53
2023/04/26 01:11:48;;;;;;;11.20;4.20;;;;;;;15.86;64.53;100583.70;110506;1270;22264;-53
2023/04/26 01:14:15;;;;;;;14.20;4.60;;;;;;;15.86;64.58;100585.13;110544;1269;22322;-53
2023/04/26 01:16:45;;;;;;;9.80;3.80;;;;;;;15.86;64.64;100585.66;110558;1270;22380;-53
2023/04/26 01:19:13;;;;;;;13.20;6.00;;;;;;;15.84;64.71;100580.65;110392;1272;22167;-53
2023/04/26 01:21:41;;;;;;;13.80;4.50;;;;;;;15.83;64.74;100582.83;110608;1267;22838;-53
2023/04/26 01:24:09;;;;;;;16.20;5.40;;;;;;;15.82;64.82;100575.35;110539;1274;22346;-53
2023/04/26 01:26:44;;;;;;;9.90;4.50;;;;;;;15.81;64.95;100574.52;110564;1273;22346;-53
2023/04/26 01:29:16;;;;;;;12.00;4.40;;;;;;;15.81;64.94;100572.60;110537;1274;23088;-53
2023/04/26 01:31:44;;;;;;;10.00;4.80;;;;;;;15.80;64.97;100563.70;110508;1269;21992;-53
2023/04/26 01:34:11;;;;;;;13.30;5.10;;;;;;;15.79;64.95;100566.39;110557;1274;23084;-53
2023/04/26 01:36:38;;;;;;;12.40;4.60;;;;;;;15.78;65.08;100571.66;110562;1268;22364;-53
2023/04/26 01:39:07;;;;;;;12.20;4.40;;;;;;;15.77;65.20;100572.95;110320;1274;22433;-53
2023/04/26 01:41:34;;;;;;;13.70;5.00;;;;;;;15.76;65.38;100568.29;110608;1267;23252;-53
2023/04/26 01:44:01;;;;;;;11.40;5.00;;;;;;;15.76;65.46;100565.46;110698;1266;22112;-53
2023/04/26 01:46:29;;;;;;;7.40;4.10;;;;;;;15.76;65.51;100563.20;110485;1274;22323;-53
2023/04/26 01:48:56;;;;;;;15.60;5.50;;;;;;;15.76;65.59;100560.20;110565;1274;22378;-53
2023/04/26 01:51:23;;;;;;;14.10;4.60;;;;;;;15.80;65.59;100559.17;110518;1273;23154;-53
2023/04/26 01:53:50;;;;;;;13.20;4.70;;;;;;;15.79;65.63;100555.70;110569;1273;22361;-53
2023/04/26 01:56:18;;;;;;;12.10;4.30;;;;;;;15.79;65.68;100556.06;110575;1269;22316;-53
2023/04/26 01:58:45;;;;;;;12.10;4.70;;;;;;;15.80;65.73;100553.42;110611;1269;23118;-53
2023/04/26 02:01:12;;;;;;;15.60;4.90;;;;;;;15.81;65.63;100551.43;110585;1268;22465;-53
2023/04/26 02:03:39;;;;;;;13.20;4.50;;;;;;;15.80;65.73;100548.52;110583;1267;22480;-53
2023/04/26 02:06:07;;;;;;;11.00;4.30;;;;;;;15.79;65.71;100545.55;110629;1267;22369;-53
2023/04/26 02:08:34;;;;;;;8.90;4.20;;;;;;;15.78;65.71;100541.04;110345;1274;283796;-53
2023/04/26 02:11:01;;;;;;;12.80;5.00;;;;;;;15.78;65.65;100539.52;110569;1268;22366;-53
2023/04/26 02:13:29;;;;;;;12.30;4.20;;;;;;;15.77;65.60;100533.23;110543;1274;22362;-54
2023/04/26 02:15:56;;;;;;;13.40;4.60;;;;;;;15.77;65.64;100533.44;110566;1274;22343;-53
2023/04/26 02:18:23;;;;;;;14.40;5.00;;;;;;;15.78;65.68;100529.16;110528;1274;23041;-53
2023/04/26 02:20:50;;;;;;;13.50;5.20;;;;;;;15.79;65.62;100531.06;110556;1268;22750;-53
2023/04/26 02:23:18;;;;;;;12.50;4.50;;;;;;;15.79;65.55;100524.77;110387;1272;22840;-53
2023/04/26 02:25:46;;;;;;;13.10;4.90;;;;;;;15.81;65.63;100523.80;110568;1269;22109;-53
2023/04/26 02:28:14;;;;;;;12.40;4.60;;;;;;;15.85;65.48;100517.47;110495;1273;22440;-53
2023/04/26 02:30:42;;;;;;;12.00;4.60;;;;;;;15.81;65.61;100515.38;110575;1268;22416;-53
2023/04/26 02:33:09;;;;;;;15.00;4.60;;;;;;;15.81;65.61;100515.05;110230;1271;22843;-53
2023/04/26 02:35:36;;;;;;;20.30;5.50;;;;;;;15.81;65.64;100517.98;110560;1269;22394;-53
2023/04/26 02:38:03;;;;;;;16.20;4.70;;;;;;;15.82;65.68;100516.56;110414;1267;23081;-53
2023/04/26 02:40:30;;;;;;;12.20;4.80;;;;;;;15.90;65.52;100511.46;110211;1267;22344;-53
2023/04/26 02:42:57;;;;;;;12.40;5.00;;;;;;;15.92;65.48;100509.63;110278;1274;22369;-53
2023/04/26 02:45:24;;;;;;;16.70;4.80;;;;;;;15.91;65.60;100506.31;110419;1270;22372;-53
2023/04/26 02:47:52;;;;;;;10.70;4.30;;;;;;;15.91;65.62;100510.86;110268;1274;22998;-53
2023/04/26 02:50:19;;;;;;;13.60;4.00;;;;;;;15.91;65.66;100516.45;110545;1270;23137;-54
2023/04/26 02:52:46;;;;;;;12.60;4.70;;;;;;;15.92;65.67;100519.59;110491;1274;22376;-53
2023/04/26 02:55:13;;;;;;;13.70;3.90;;;;;;;15.91;65.74;100521.38;110576;1270;23119;-53
2023/04/26 02:57:41;;;;;;;10.20;3.80;;;;;;;15.91;65.86;100523.50;110509;1274;22358;-53
2023/04/26 03:00:10;;;;;;;14.90;4.40;;;;;;;15.90;66.02;100524.56;110544;1269;22112;-53
2023/04/26 03:02:40;;;;;;;13.20;4.70;;;;;;;15.89;66.17;100521.64;110578;1274;22091;-53
2023/04/26 03:05:08;;;;;;;15.90;5.40;;;;;;;15.89;66.34;100527.61;110586;1274;22272;-53
2023/04/26 03:07:35;;;;;;;9.70;4.00;;;;;;;15.88;66.48;100524.86;110283;1274;22138;-53
2023/04/26 03:10:04;;;;;;;14.40;5.00;;;;;;;15.87;66.52;100528.05;110553;1274;22134;-53
2023/04/26 03:12:31;;;;;;;17.10;4.40;;;;;;;15.87;66.58;100526.48;110523;1271;22255;-53
2023/04/26 03:14:59;;;;;;;12.90;4.00;;;;;;;15.86;66.68;100529.50;110528;1269;22367;-53
2023/04/26 03:17:26;;;;;;;15.70;5.10;;;;;;;15.85;66.71;100529.04;110369;1267;22176;-53
2023/04/26 03:19:53;;;;;;;11.10;4.50;;;;;;;15.84;66.79;100526.23;110359;1271;22134;-53
2023/04/26 03:22:20;;;;;;;16.60;5.20;;;;;;;15.85;66.88;100525.54;110571;1272;22373;-53
2023/04/26 03:24:48;;;;;;;14.70;4.40;;;;;;;15.86;66.91;100524.59;110442;1274;23006;-53
2023/04/26 03:27:15;;;;;;;12.00;4.20;;;;;;;15.87;66.96;100527.88;110509;1274;22196;-54
2023/04/26 03:29:43;;;;;;;13.10;4.60;;;;;;;15.86;66.82;100528.45;110431;1270;23023;-54
2023/04/26 03:32:10;;;;;;;13.40;4.80;;;;;;;15.86;66.85;100524.95;110669;1266;22391;-53
2023/04/26 03:34:37;;;;;;;8.90;3.70;;;;;;;15.87;66.73;100525.95;110578;1273;22415;-53
2023/04/26 03:37:04;;;;;;;11.60;3.80;;;;;;;15.87;66.60;100522.96;110480;1270;22278;-54
2023/04/26 03:39:31;;;;;;;15.90;4.90;;;;;;;15.86;66.65;100518.27;110462;1269;22108;-53
2023/04/26 03:42:00;;;;;;;13.80;5.10;;;;;;;15.87;66.79;100515.27;110238;1274;22200;-53
2023/04/26 03:44:27;;;;;;;15.40;5.00;;;;;;;15.88;66.81;100514.20;110593;1266;22183;-53
2023/04/26 03:46:56;;;;;;;14.80;4.60;;;;;;;15.89;66.84;100513.09;110587;1266;22119;-53
2023/04/26 03:49:24;;;;;;;15.00;4.50;;;;;;;15.89;66.86;100514.50;110571;1269;23126;-53
2023/04/26 03:51:51;;;;;;;15.30;4.80;;;;;;;15.89;66.91;100515.52;110573;1272;22418;-53
2023/04/26 03:54:18;;;;;;;11.60;4.60;;;;;;;15.90;66.92;100512.14;110439;1274;22454;-53
2023/04/26 03:56:45;;;;;;;14.00;4.40;;;;;;;15.91;66.91;100512.63;110368;1274;23006;-53
2023/04/26 03:59:12;;;;;;;12.70;4.30;;;;;;;15.92;66.90;100514.35;110365;1274;22349;-53
2023/04/26 04:01:39;;;;;;;11.10;4.30;;;;;;;15.90;66.97;100518.26;110560;1274;22259;-53
2023/04/26 04:04:06;;;;;;;12.60;4.90;;;;;;;15.92;67.05;100519.73;110586;1267;22163;-53
2023/04/26 04:06:34;;;;;;;12.60;4.70;;;;;;;15.94;66.86;100522.11;110439;1267;22299;-53
2023/04/26 04:09:01;;;;;;;15.30;5.10;;;;;;;15.95;66.85;100520.48;110410;1274;22900;-53
2023/04/26 04:11:28;;;;;;;13.20;5.60;;;;;;;15.95;66.87;100523.80;110630;1267;22392;-53
2023/04/26 04:13:55;;;;;;;17.30;4.00;;;;;;;15.99;66.64;100523.63;110278;1273;22195;-53
2023/04/26 04:16:22;;;;;;;10.40;4.30;;;;;;;16.01;66.51;100522.10;110576;1269;22287;-53
2023/04/26 04:18:49;;;;;;;12.50;4.60;;;;;;;16.04;66.38;100522.52;110597;1271;23186;-53
2023/04/26 04:21:17;;;;;;;14.80;3.90;;;;;;;16.05;66.35;100517.88;110335;1271;22281;-53
2023/04/26 04:23:44;;;;;;;13.00;4.80;;;;;;;16.06;66.29;100518.55;110428;1270;22510;-53
2023/04/26 04:26:11;;;;;;;12.80;5.00;;;;;;;16.07;66.27;100520.77;110385;1274;22291;-53
2023/04/26 04:28:40;;;;;;;20.10;4.80;;;;;;;16.09;66.15;100520.35;110425;1270;22375;-53
2023/04/26 04:31:10;;;;;;;10.30;5.00;;;;;;;16.11;66.12;100522.52;110449;1271;22119;-53
2023/04/26 04:33:37;;;;;;;9.50;4.00;;;;;;;16.14;66.03;100525.52;110568;1268;22293;-53
2023/04/26 04:36:05;;;;;;;12.40;4.70;;;;;;;16.16;65.96;100527.87;110546;1267;23094;-53
2023/04/26 04:38:33;;;;;;;14.10;4.40;;;;;;;16.19;65.89;100532.24;110276;1269;22289;-53
2023/04/26 04:41:03;;;;;;;17.80;5.30;;;;;;;16.24;65.75;100537.11;110422;1274;22957;-54
2023/04/26 04:43:30;;;;;;;16.30;4.70;;;;;;;16.28;65.49;100536.02;110274;1274;22865;-53
2023/04/26 04:45:57;;;;;;;12.90;4.90;;;;;;;16.31;65.43;100530.80;110360;1273;22285;-53
2023/04/26 04:48:25;;;;;;;21.20;5.60;;;;;;;16.34;65.17;100530.54;110375;1274;22211;-53
2023/04/26 04:50:52;;;;;;;13.40;5.00;;;;;;;16.36;65.07;100529.36;110486;1275;22164;-54
2023/04/26 04:53:19;;;;;;;12.10;5.10;;;;;;;16.38;64.88;100532.60;110500;1276;22433;-53
2023/04/26 04:55:46;;;;;;;11.70;5.10;;;;;;;16.39;64.74;100534.25;110201;1273;23191;-53
2023/04/26 04:58:14;;;;;;;8.50;4.00;;;;;;;16.41;64.56;100534.89;110144;1277;22132;-53
2023/04/26 05:00:44;;;;;;;8.50;4.20;;;;;;;16.41;64.53;100531.55;110088;1278;22869;-53
2023/04/26 05:03:32;;;;;;;9.70;4.40;;;;;;;16.42;64.51;100532.20;110310;1272;23182;-53
2023/04/26 05:06:01;;;;;;;16.20;4.60;;;;;;;16.42;64.51;100529.95;110190;1270;22342;-53
2023/04/26 05:08:28;;;;;;;16.80;4.60;;;;;;;16.43;64.50;100527.79;110153;1277;23216;-53
2023/04/26 05:10:58;;;;;;;11.20;4.10;;;;;;;16.44;64.53;100529.31;110021;1279;22156;-53
2023/04/26 05:13:25;;;;;;;12.90;4.40;;;;;;;16.46;64.56;100530.45;110073;1274;22186;-53
2023/04/26 05:15:53;;;;;;;10.80;4.30;;;;;;;16.49;64.53;100529.23;110168;1275;22934;-53
2023/04/26 05:18:20;;;;;;;12.90;4.20;;;;;;;16.52;64.60;100531.39;110229;1273;22219;-53
2023/04/26 05:20:47;;;;;;;10.50;4.00;;;;;;;16.54;64.50;100529.89;110224;1278;22164;-53
2023/04/26 05:23:14;;;;;;;12.00;4.40;;;;;;;16.56;64.54;100535.40;110097;1275;22880;-53
2023/04/26 05:25:41;;;;;;;12.50;4.60;;;;;;;16.60;64.45;100535.57;110533;1269;22224;-53
2023/04/26 05:28:44;;;;;;;12.50;4.80;;;;;;;16.64;64.46;100542.19;109947;1279;22171;-53
2023/04/26 05:31:32;;;;;;;14.00;4.10;;;;;;;16.69;64.54;100540.88;110485;1275;22105;-53
2023/04/26 05:34:06;;;;;;;11.80;4.40;;;;;;;16.77;64.56;100541.33;110151;1275;22399;-53
2023/04/26 05:36:36;;;;;;;15.30;5.40;;;;;;;16.95;64.59;100533.92;110339;1275;22356;-53
2023/04/26 05:39:04;;;;;;;12.70;4.30;;;;;;;17.18;64.08;100534.64;109398;1276;1002393;-53
2023/04/26 05:41:31;;;;;;;14.60;5.40;;;;;;;17.46;63.46;100532.81;110395;1272;23005;-53
2023/04/26 05:43:58;;;;;;;13.50;4.20;;;;;;;17.73;62.65;100535.20;110570;1270;22454;-53
2023/04/26 05:46:26;;;;;;;8.60;3.70;;;;;;;17.99;61.87;100536.20;110328;1274;22411;-53
2023/04/26 05:48:54;;;;;;;13.80;4.60;;;;;;;18.25;61.03;100537.69;110185;1273;22232;-53
2023/04/26 05:51:21;;;;;;;14.40;4.90;;;;;;;18.52;60.29;100535.27;110218;1267;22438;-53
2023/04/26 05:53:48;;;;;;;15.50;4.70;;;;;;;18.78;59.37;100533.09;110119;1270;22375;-53
2023/04/26 05:56:16;;;;;;;13.60;4.40;;;;;;;19.03;58.55;100537.02;110365;1270;22448;-53
2023/04/26 05:58:43;;;;;;;9.20;3.80;;;;;;;19.25;57.84;100535.45;110596;1274;22381;-53
2023/04/26 06:01:11;;;;;;;14.40;4.70;;;;;;;19.48;57.19;100538.15;110503;1274;22319;-53
2023/04/26 06:03:38;;;;;;;11.80;3.80;;;;;;;19.69;56.36;100539.66;110455;1267;22410;-53
2023/04/26 06:06:06;;;;;;;16.30;4.50;;;;;;;19.88;55.89;100538.04;110589;1269;23138;-53
2023/04/26 06:08:34;;;;;;;11.80;4.60;;;;;;;20.07;55.21;100536.13;110483;1270;22947;-53
2023/04/26 06:11:01;;;;;;;9.20;4.00;;;;;;;20.21;54.58;100543.30;110414;1274;22859;-53
2023/04/26 06:13:28;;;;;;;15.20;4.70;;;;;;;20.33;54.19;100548.92;110193;1274;22340;-53
2023/04/26 06:15:58;;;;;;;10.90;4.00;;;;;;;20.39;53.94;100546.58;110316;1272;22155;-53
2023/04/26 06:18:25;;;;;;;10.00;4.00;;;;;;;20.43;53.57;100550.17;110588;1269;22424;-53
2023/04/26 06:20:52;;;;;;;13.00;4.50;;;;;;;20.47;53.56;100551.48;110567;1270;22270;-53
2023/04/26 06:23:19;;;;;;;13.00;4.60;;;;;;;20.53;53.32;100552.84;108937;1271;1003088;-53
2023/04/26 06:25:46;;;;;;;19.10;5.20;;;;;;;20.56;53.02;100556.15;110551;1270;22328;-53
2023/04/26 06:28:13;;;;;;;12.20;4.80;;;;;;;20.56;52.94;100555.64;110494;1272;22381;-53
2023/04/26 06:30:41;;;;;;;14.80;4.50;;;;;;;20.59;53.03;100557.41;110430;1274;22116;-53
2023/04/26 06:33:08;;;;;;;13.40;3.80;;;;;;;20.63;52.90;100561.31;110584;1269;22555;-53
2023/04/26 06:35:41;;;;;;;14.20;4.80;;;;;;;20.69;52.62;100561.14;110318;1273;23099;-53
2023/04/26 06:38:11;;;;;;;12.80;4.30;;;;;;;20.74;52.55;100566.59;110178;1267;22491;-53
2023/04/26 06:40:38;;;;;;;13.30;4.70;;;;;;;20.81;52.56;100569.81;110582;1270;22272;-53
2023/04/26 06:43:05;;;;;;;11.30;4.60;;;;;;;20.88;52.20;100569.52;110140;1275;22099;-53
2023/04/26 06:45:59;;;;;;;12.20;5.10;;;;;;;20.95;52.13;100568.55;110542;1269;22299;-53
2023/04/26 06:48:26;;;;;;;12.60;4.80;;;;;;;21.01;52.05;100566.52;110557;1269;22379;-53
2023/04/26 06:50:53;;;;;;;16.60;5.60;;;;;;;21.11;51.78;100568.58;110612;1267;22387;-53
2023/04/26 06:53:20;;;;;;;13.60;4.40;;;;;;;21.20;51.77;100568.41;110221;1276;22497;-53
2023/04/26 06:55:49;;;;;;;14.90;5.00;;;;;;;21.32;51.38;100568.84;110563;1274;22895;-53
2023/04/26 06:58:16;;;;;;;12.10;4.60;;;;;;;21.42;51.06;100574.70;110558;1274;22145;-52
2023/04/26 07:00:43;;;;;;;16.10;4.70;;;;;;;21.44;50.70;100573.65;110502;1269;22092;-53
2023/04/26 07:03:10;;;;;;;16.90;5.00;;;;;;;21.35;50.82;100573.90;110614;1274;22354;-53
2023/04/26 07:05:38;;;;;;;13.90;5.50;;;;;;;21.28;50.90;100571.96;110578;1271;22391;-53
2023/04/26 07:08:05;;;;;;;17.30;5.10;;;;;;;21.22;50.84;100571.12;110527;1274;22111;-53
2023/04/26 07:10:32;;;;;;;16.10;5.80;;;;;;;21.12;51.25;100576.58;110401;1273;23064;-52
2023/04/26 07:13:00;;;;;;;15.10;4.80;;;;;;;21.02;51.71;100580.91;110635;1267;22409;-53
2023/04/26 07:15:27;;;;;;;11.10;4.00;;;;;;;21.03;51.74;100580.33;110241;1274;22352;-53
2023/04/26 07:17:54;;;;;;;11.40;4.30;;;;;;;21.12;51.75;100583.99;110273;1274;22149;-53
2023/04/26 07:20:21;;;;;;;13.30;4.20;;;;;;;21.25;51.39;100581.34;109539;1275;1002491;-53
2023/04/26 07:22:49;;;;;;;11.00;4.40;;;;;;;21.36;50.84;100582.13;110569;1270;22403;-53
2023/04/26 07:25:16;;;;;;;13.10;5.20;;;;;;;21.41;50.53;100582.86;110569;1270;22955;-52
2023/04/26 07:27:43;;;;;;;11.00;4.80;;;;;;;21.40;50.38;100588.95;110562;1272;22207;-53
2023/04/26 07:30:11;;;;;;;18.60;5.20;;;;;;;21.32;50.73;100587.41;110555;1273;22884;-53
2023/04/26 07:32:38;;;;;;;12.20;4.30;;;;;;;21.19;51.38;100591.65;110582;1267;22281;-53
2023/04/26 07:35:13;;;;;;;16.00;4.90;;;;;;;21.14;51.68;100590.70;110265;1274;22343;-52
2023/04/26 07:37:42;;;;;;;18.90;4.50;;;;;;;21.15;51.52;100593.65;110249;1273;23087;-52
2023/04/26 07:40:10;;;;;;;12.60;4.50;;;;;;;21.14;51.51;100592.71;110535;1274;23291;-52
2023/04/26 07:42:37;;;;;;;14.80;5.50;;;;;;;21.13;51.74;100591.14;110215;1274;22267;-52
2023/04/26 07:45:05;;;;;;;13.20;4.40;;;;;;;21.12;51.80;100591.73;110537;1274;22126;-53
2023/04/26 07:47:32;;;;;;;10.10;4.30;;;;;;;21.11;51.86;100592.73;110569;1272;22915;-53
2023/04/26 07:49:59;;;;;;;19.30;5.10;;;;;;;21.08;51.71;100592.02;110594;1274;22480;-52
2023/04/26 07:52:26;;;;;;;18.20;5.50;;;;;;;21.05;51.96;100594.48;110267;1272;22325;-52
2023/04/26 07:54:53;;;;;;;10.40;4.60;;;;;;;21.04;51.87;100596.53;110578;1272;22126;-52
2023/04/26 07:57:20;;;;;;;14.90;4.70;;;;;;;21.03;51.88;100602.39;110277;1274;22404;-52
2023/04/26 07:59:47;;;;;;;12.50;5.50;;;;;;;21.02;51.97;100602.45;110576;1272;22460;-53
2023/04/26 08:02:15;;;;;;;15.80;5.00;;;;;;;21.01;52.16;100604.45;110594;1270;22190;-53
2023/04/26 08:04:47;;;;;;;12.70;5.00;;;;;;;20.99;52.12;100602.27;110576;1274;22130;-53
2023/04/26 08:07:15;;;;;;;12.70;4.90;;;;;;;20.99;52.33;100602.84;110346;1274;23261;-52
2023/04/26 08:09:42;;;;;;;12.40;4.10;;;;;;;20.99;52.18;100603.35;110572;1269;22323;-52
2023/04/26 08:12:10;;;;;;;14.80;4.30;;;;;;;20.98;52.03;100603.20;110551;1275;22255;-54
2023/04/26 08:14:37;;;;;;;11.40;3.90;;;;;;;20.98;51.76;100605.84;110511;1274;22951;-53
2023/04/26 08:17:05;;;;;;;12.80;4.60;;;;;;;20.97;51.68;100602.77;110594;1269;22445;-52
2023/04/26 08:19:33;;;;;;;15.30;4.30;;;;;;;20.94;51.74;100605.11;110582;1274;22141;-52
2023/04/26 08:22:00;;;;;;;12.50;4.10;;;;;;;20.91;51.79;100606.67;110547;1274;22430;-52
2023/04/26 08:24:27;;;;;;;14.50;5.10;;;;;;;20.88;51.85;100604.46;110589;1267;22261;-53
2023/04/26 08:26:54;;;;;;;12.10;4.20;;;;;;;20.86;51.97;100604.24;110541;1269;22193;-52
2023/04/26 08:29:22;;;;;;;11.30;4.30;;;;;;;20.82;52.16;100601.65;110564;1270;22376;-53
2023/04/26 08:31:49;;;;;;;10.90;4.90;;;;;;;20.79;52.54;100601.12;110531;1274;22134;-52
2023/04/26 08:34:16;;;;;;;15.50;4.40;;;;;;;20.80;52.67;100601.08;110566;1266;22493;-52
2023/04/26 08:36:44;;;;;;;13.00;4.50;;;;;;;20.84;52.87;100601.38;110606;1269;22136;-53
2023/04/26 08:39:11;;;;;;;14.40;4.80;;;;;;;20.88;52.52;100605.86;110515;1274;22133;-53
2023/04/26 08:41:43;;;;;;;11.50;4.50;;;;;;;20.92;52.56;100610.48;110538;1274;22284;-53
2023/04/26 08:44:10;;;;;;;14.20;4.70;;;;;;;20.97;52.34;100612.78;110484;1274;23001;-53
2023/04/26 08:46:51;;;;;;;13.90;5.00;;;;;;;21.02;52.06;100616.19;110576;1267;22453;-53
2023/04/26 08:49:43;;;;;;;18.40;5.50;;;;;;;21.05;51.82;100614.59;110228;1274;22124;-53
2023/04/26 08:52:11;;;;;;;11.60;4.50;;;;;;;21.07;51.74;100611.99;110529;1267;23216;-52
2023/04/26 08:54:38;;;;;;;14.20;4.60;;;;;;;21.07;51.83;100607.41;110310;1266;22356;-53
2023/04/26 08:57:06;;;;;;;13.10;4.40;;;;;;;21.07;52.06;100608.32;110235;1275;22391;-53
2023/04/26 08:59:36;;;;;;;14.00;4.50;;;;;;;21.08;51.92;100610.58;110580;1270;22175;-53
2023/04/26 09:02:07;;;;;;;13.50;4.10;;;;;;;21.09;51.87;100612.45;110562;1272;22133;-53
2023/04/26 09:04:34;;;;;;;17.90;4.20;;;;;;;21.10;52.08;100609.33;110553;1274;23149;-53
2023/04/26 09:07:03;;;;;;;15.00;4.30;;;;;;;21.13;51.84;100608.83;110544;1272;22404;-53
2023/04/26 09:09:34;;;;;;;12.80;4.20;;;;;;;21.15;51.88;100609.72;110257;1273;22433;-53
2023/04/26 09:12:02;;;;;;;10.00;4.50;;;;;;;21.19;51.90;100607.36;110036;1275;22047;-53
2023/04/26 09:14:29;;;;;;;14.80;4.80;;;;;;;21.23;51.74;100609.20;110597;1273;22086;-53
2023/04/26 09:16:56;;;;;;;11.00;4.90;;;;;;;21.27;51.54;100601.49;110609;1269;22402;-52
2023/04/26 09:19:41;;;;;;;13.40;5.40;;;;;;;21.29;51.49;100603.66;110601;1271;22319;-53
2023/04/26 09:22:08;;;;;;;12.30;4.20;;;;;;;21.30;51.39;100601.96;110560;1268;22311;-52
2023/04/26 09:24:49;;;;;;;12.90;4.50;;;;;;;21.30;51.48;100603.02;110507;1274;22121;-52
2023/04/26 09:27:17;;;;;;;10.50;4.10;;;;;;;21.31;51.36;100604.55;110496;1270;22116;-52
2023/04/26 09:30:16;;;;;;;14.00;4.30;;;;;;;21.31;51.48;100604.23;110511;1275;22265;-53
2023/04/26 09:32:54;;;;;;;14.10;4.80;;;;;;;21.30;51.40;100605.14;110511;1274;22413;-52
2023/04/26 09:35:27;;;;;;;21.80;4.70;;;;;;;21.28;51.35;100605.62;110544;1273;22342;-53
2023/04/26 09:37:57;;;;;;;15.70;4.30;;;;;;;21.26;51.44;100605.41;110591;1269;23167;-53
2023/04/26 09:40:31;;;;;;;13.70;4.90;;;;;;;21.26;51.48;100607.02;110533;1275;22219;-52
2023/04/26 09:43:02;;;;;;;10.00;4.40;;;;;;;21.26;51.33;100601.73;110160;1274;23104;-52
2023/04/26 09:45:30;;;;;;;13.20;4.30;;;;;;;21.25;51.59;100606.36;110564;1270;22386;-53
2023/04/26 09:48:15;;;;;;;13.40;4.60;;;;;;;21.26;51.38;100608.08;110592;1269;22099;-53
2023/04/26 09:50:44;;;;;;;12.30;4.50;;;;;;;21.26;51.51;100606.48;110238;1274;22332;-53
2023/04/26 09:53:39;;;;;;;17.20;4.90;;;;;;;21.26;51.46;100609.33;110543;1271;22399;-52
2023/04/26 09:56:07;;;;;;;12.00;5.50;;;;;;;21.25;51.70;100610.78;110431;1276;22314;-52
2023/04/26 09:58:40;;;;;;;11.20;4.10;;;;;;;21.24;51.89;100613.00;110437;1270;22299;-52
2023/04/26 10:01:08;;;;;;;15.10;4.60;;;;;;;21.24;51.79;100611.93;110139;1276;22351;-53
2023/04/26 10:03:35;;;;;;;11.70;4.10;;;;;;;21.23;51.74;100612.32;110228;1272;22445;-53
2023/04/26 10:06:03;;;;;;;11.60;4.60;;;;;;;21.23;51.74;100613.02;110321;1270;22300;-53
2023/04/26 10:08:31;;;;;;;16.20;4.60;;;;;;;21.23;51.66;100613.95;110141;1273;22304;-53
2023/04/26 10:11:00;;;;;;;13.60;5.40;;;;;;;21.22;51.64;100615.02;110497;1268;22508;-53
2023/04/26 10:13:27;;;;;;;11.10;3.80;;;;;;;21.22;51.82;100617.02;110314;1276;22294;-53
2023/04/26 10:15:55;;;;;;;12.60;5.10;;;;;;;21.22;51.70;100619.64;110394;1270;22354;-53
2023/04/26 10:18:22;;;;;;;10.00;3.80;;;;;;;21.22;51.57;100619.63;110376;1276;22176;-53
2023/04/26 10:20:50;;;;;;;15.00;4.50;;;;;;;21.22;51.48;100617.70;110234;1272;22201;-53
2023/04/26 10:23:24;;;;;;;14.90;4.70;;;;;;;21.21;51.68;100617.44;110190;1273;22311;-52
2023/04/26 10:25:51;;;;;;;12.60;5.50;;;;;;;21.20;51.76;100621.75;110359;1271;22139;-52
2023/04/26 10:28:43;;;;;;;8.60;3.80;;;;;;;21.20;51.88;100622.08;110594;1267;22339;-52
2023/04/26 10:31:10;;;;;;;;;;;;;;;21.21;52.03;100621.98;110567;1274;22413;-53
2023/04/26 10:33:37;;;;;;;9.60;3.80;;;;;;;21.23;51.81;100618.71;110578;1270;22196;-53
2023/04/26 10:36:11;;;;;;;15.70;4.90;;;;;;;21.24;51.83;100614.40;110521;1274;22132;-53
2023/04/26 10:39:28;;;;;;;10.30;3.70;;;;;;;21.25;51.83;100610.98;110555;1270;22407;-53
2023/04/26 10:42:22;;;;;;;12.10;4.00;;;;;;;21.29;51.49;100615.86;110031;1276;22252;-52
2023/04/26 10:44:52;;;;;;;13.00;4.50;;;;;;;21.27;51.44;100614.00;110035;1275;22172;-53
2023/04/26 10:47:25;;;;;;;8.20;4.00;;;;;;;21.24;51.40;100612.80;110067;1273;22380;-52
2023/04/26 10:49:52;;;;;;;13.00;4.50;;;;;;;21.19;51.46;100618.64;110007;1275;22427;-52
2023/04/26 10:52:20;;;;;;;9.10;4.30;;;;;;;21.14;51.49;100621.79;109823;1281;22296;-53
2023/04/26 10:54:50;;;;;;;11.60;4.40;;;;;;;21.08;51.40;100624.42;110009;1276;22180;-53
2023/04/26 10:57:17;;;;;;;8.00;3.50;;;;;;;21.00;51.57;100625.48;110014;1280;22931;-53
2023/04/26 11:00:08;;;;;;;11.00;3.90;;;;;;;20.94;51.77;100621.64;110002;1280;22187;-53
2023/04/26 11:02:50;;;;;;;;;;;;;;;20.90;51.96;100625.64;110026;1280;22441;-52
2023/04/26 11:05:51;;;;;;;6.20;3.50;;;;;;;20.87;52.16;100625.64;110046;1277;22446;-52
2023/04/26 11:08:20;;;;;;;9.00;4.10;;;;;;;20.85;52.33;100622.63;109995;1281;22145;-53
2023/04/26 11:11:02;;;;;;;9.50;3.60;;;;;;;20.86;52.37;100621.66;110000;1276;22309;-53
2023/04/26 11:13:32;;;;;;;8.50;3.50;;;;;;;20.88;52.30;100625.05;109990;1281;22175;-53
2023/04/26 11:16:04;;;;;;;6.70;4.00;;;;;;;20.89;52.11;100626.22;110001;1276;22320;-53
2023/04/26 11:18:31;;;;;;;9.10;3.90;;;;;;;20.89;51.94;100619.54;110139;1274;23325;-52